createdAt,value
2019-05-06T00:00:09.940Z,49.29
2019-05-06T00:02:43.703Z,49.32
2019-05-06T00:05:15.489Z,49.36
2019-05-06T00:07:54.441Z,49.36
2019-05-06T00:10:30.968Z,49.42
2019-05-06T00:13:04.561Z,49.44
2019-05-06T00:15:36.478Z,49.51
2019-05-06T00:18:08.283Z,49.48
2019-05-06T00:20:40.135Z,49.53
2019-05-06T00:23:17.539Z,49.57
2019-05-06T00:26:05.410Z,49.59
2019-05-06T00:28:44.795Z,49.62
2019-05-06T00:31:18.479Z,49.70
2019-05-06T00:33:50.163Z,49.83
2019-05-06T00:36:23.702Z,49.99
2019-05-06T00:38:58.448Z,50.07
2019-05-06T00:41:36.286Z,50.14
2019-05-06T00:44:07.466Z,50.16
2019-05-06T00:46:39.134Z,50.18
2019-05-06T00:49:11.152Z,50.25
2019-05-06T00:51:43.985Z,50.34
2019-05-06T00:54:19.507Z,50.42
2019-05-06T00:56:51.575Z,50.50
2019-05-06T00:59:23.865Z,50.54
2019-05-06T01:01:55.783Z,50.65
2019-05-06T01:04:56.123Z,50.65
2019-05-06T01:07:30.555Z,50.65
2019-05-06T01:10:03.800Z,50.61
2019-05-06T01:12:38.947Z,50.62
2019-05-06T01:15:15.707Z,50.63
2019-05-06T01:17:47.381Z,50.66
2019-05-06T01:20:19.107Z,50.65
2019-05-06T01:22:51.003Z,50.69
2019-05-06T01:25:23.741Z,50.68
2019-05-06T01:27:55.935Z,50.71
2019-05-06T01:30:28.238Z,50.79
2019-05-06T01:33:00.248Z,50.86
2019-05-06T01:35:32.554Z,50.87
2019-05-06T01:38:24.322Z,50.90
2019-05-06T01:41:14.902Z,50.92
2019-05-06T01:43:46.793Z,50.91
2019-05-06T01:46:18.605Z,50.98
2019-05-06T01:48:50.469Z,51.05
2019-05-06T01:51:24.123Z,51.08
2019-05-06T01:53:55.985Z,51.12
2019-05-06T01:56:27.856Z,51.13
2019-05-06T01:58:59.521Z,51.18
2019-05-06T02:01:31.391Z,51.25
2019-05-06T02:04:04.473Z,51.26
2019-05-06T02:06:36.602Z,51.23
2019-05-06T02:09:15.918Z,51.25
2019-05-06T02:11:48.326Z,51.27
2019-05-06T02:14:20.080Z,51.25
2019-05-06T02:16:54.340Z,51.25
2019-05-06T02:19:25.442Z,51.27
2019-05-06T02:22:06.997Z,51.29
2019-05-06T02:24:48.759Z,51.41
2019-05-06T02:27:20.480Z,51.43
2019-05-06T02:30:11.073Z,51.43
2019-05-06T02:33:06.304Z,51.46
2019-05-06T02:35:45.359Z,51.46
2019-05-06T02:38:35.711Z,51.47
2019-05-06T02:41:03.515Z,51.48
2019-05-06T02:43:35.834Z,51.47
2019-05-06T02:46:07.499Z,51.52
2019-05-06T02:48:55.147Z,51.60
2019-05-06T02:51:28.478Z,51.63
2019-05-06T02:54:03.079Z,51.65
2019-05-06T02:56:33.856Z,51.73
2019-05-06T02:59:06.656Z,51.74
2019-05-06T03:01:38.347Z,51.79
2019-05-06T03:04:12.953Z,51.78
2019-05-06T03:06:44.767Z,51.81
2019-05-06T03:09:16.684Z,51.82
2019-05-06T03:11:48.366Z,51.90
2019-05-06T03:14:23.168Z,51.95
2019-05-06T03:16:54.166Z,51.97
2019-05-06T03:19:27.858Z,51.98
2019-05-06T03:22:18.388Z,52.04
2019-05-06T03:25:06.882Z,52.09
2019-05-06T03:27:38.335Z,52.14
2019-05-06T03:30:15.823Z,52.16
2019-05-06T03:33:20.278Z,52.21
2019-05-06T03:35:33.193Z,52.24
2019-05-06T03:37:53.343Z,52.27
2019-05-06T03:40:24.294Z,52.27
2019-05-06T03:42:55.985Z,52.28
2019-05-06T03:45:46.639Z,52.30
2019-05-06T03:48:24.017Z,52.33
2019-05-06T03:50:56.257Z,52.29
2019-05-06T03:53:33.303Z,52.36
2019-05-06T03:56:04.554Z,52.40
2019-05-06T03:58:38.467Z,52.45
2019-05-06T04:01:12.948Z,52.50
2019-05-06T04:03:48.679Z,52.56
2019-05-06T04:06:17.212Z,52.58
2019-05-06T04:08:52.892Z,52.62
2019-05-06T04:11:25.058Z,52.70
2019-05-06T04:13:58.895Z,52.79
2019-05-06T04:16:39.632Z,52.86
2019-05-06T04:19:23.885Z,52.91
2019-05-06T04:22:04.840Z,52.96
2019-05-06T04:24:49.555Z,52.97
2019-05-06T04:28:03.319Z,53.03
2019-05-06T04:30:35.076Z,53.12
2019-05-06T04:33:06.878Z,53.06
2019-05-06T04:35:39.092Z,53.10
2019-05-06T04:38:13.885Z,53.16
2019-05-06T04:40:44.541Z,53.20
2019-05-06T04:43:17.028Z,53.34
2019-05-06T04:45:49.168Z,53.39
2019-05-06T04:48:23.837Z,53.41
2019-05-06T04:50:55.061Z,53.48
2019-05-06T04:53:27.195Z,53.47
2019-05-06T04:55:59.093Z,53.53
2019-05-06T04:58:33.604Z,53.55
2019-05-06T05:01:07.120Z,53.58
2019-05-06T05:03:38.894Z,53.62
2019-05-06T05:06:13.528Z,53.65
2019-05-06T05:08:44.934Z,53.71
2019-05-06T05:11:38.847Z,53.70
2019-05-06T05:14:25.972Z,53.67
2019-05-06T05:17:12.737Z,53.63
2019-05-06T05:19:44.376Z,53.58
2019-05-06T05:22:16.370Z,53.51
2019-05-06T05:24:48.221Z,53.49
2019-05-06T05:27:21.908Z,53.41
2019-05-06T05:29:53.535Z,53.39
2019-05-06T05:32:26.976Z,53.39
2019-05-06T05:34:59.041Z,53.37
2019-05-06T05:37:32.709Z,53.39
2019-05-06T05:40:04.188Z,53.37
2019-05-06T05:42:52.222Z,53.43
2019-05-06T05:45:32.861Z,53.51
2019-05-06T05:48:09.792Z,53.57
2019-05-06T05:50:43.040Z,53.57
2019-05-06T05:53:14.826Z,53.60
2019-05-06T05:55:47.389Z,53.61
2019-05-06T05:58:19.709Z,53.63
2019-05-06T06:00:52.116Z,53.66
2019-05-06T06:03:24.297Z,53.73
2019-05-06T06:05:56.035Z,53.73
2019-05-06T06:08:27.958Z,53.75
2019-05-06T06:11:32.703Z,53.71
2019-05-06T06:14:08.241Z,53.68
2019-05-06T06:16:59.276Z,53.55
2019-05-06T06:19:42.551Z,53.40
2019-05-06T06:22:17.675Z,53.28
2019-05-06T06:24:49.536Z,53.16
2019-05-06T06:27:22.352Z,53.09
2019-05-06T06:29:54.299Z,52.93
2019-05-06T06:32:28.073Z,52.85
2019-05-06T06:35:18.842Z,52.82
2019-05-06T06:38:06.590Z,52.80
2019-05-06T06:40:38.331Z,52.78
2019-05-06T06:43:15.178Z,52.72
2019-05-06T06:45:47.280Z,52.69
2019-05-06T06:48:19.114Z,52.58
2019-05-06T06:50:52.226Z,52.53
2019-05-06T06:53:24.053Z,52.48
2019-05-06T06:56:14.759Z,52.36
2019-05-06T06:59:12.790Z,52.35
2019-05-06T07:01:53.924Z,52.58
2019-05-06T07:04:39.307Z,52.90
2019-05-06T07:07:13.110Z,52.97
2019-05-06T07:09:45.259Z,53.03
2019-05-06T07:12:17.024Z,53.17
2019-05-06T07:14:52.264Z,53.16
2019-05-06T07:17:23.776Z,53.01
2019-05-06T07:19:57.790Z,53.01
2019-05-06T07:22:36.825Z,53.12
2019-05-06T07:25:12.822Z,53.12
2019-05-06T07:27:44.645Z,53.08
2019-05-06T07:30:16.940Z,52.88
2019-05-06T07:32:48.643Z,52.56
2019-05-06T07:35:22.404Z,52.31
2019-05-06T07:37:54.510Z,51.91
2019-05-06T07:40:26.932Z,51.57
2019-05-06T07:43:02.282Z,51.22
2019-05-06T07:45:47.878Z,50.83
2019-05-06T07:48:19.537Z,50.40
2019-05-06T07:50:52.096Z,50.07
2019-05-06T07:53:23.911Z,49.72
2019-05-06T07:55:56.130Z,49.46
2019-05-06T07:58:27.815Z,49.17
2019-05-06T08:00:59.576Z,49.13
2019-05-06T08:03:32.983Z,48.93
2019-05-06T08:06:04.843Z,48.61
2019-05-06T08:08:36.546Z,48.50
2019-05-06T08:11:08.896Z,48.35
2019-05-06T08:13:43.204Z,48.34
2019-05-06T08:16:15.847Z,48.39
2019-05-06T08:18:47.696Z,48.49
2019-05-06T08:21:22.835Z,48.48
2019-05-06T08:23:54.550Z,48.52
2019-05-06T08:26:26.463Z,48.46
2019-05-06T08:28:59.207Z,48.24
2019-05-06T08:31:32.806Z,48.18
2019-05-06T08:34:04.644Z,48.11
2019-05-06T08:36:56.230Z,48.00
2019-05-06T08:39:27.926Z,47.96
2019-05-06T08:41:59.745Z,47.90
2019-05-06T08:44:32.320Z,47.85
2019-05-06T08:47:04.196Z,47.80
2019-05-06T08:49:53.479Z,47.77
2019-05-06T08:52:29.658Z,47.57
2019-05-06T08:55:02.869Z,47.28
2019-05-06T08:57:34.876Z,47.19
2019-05-06T09:00:07.594Z,47.09
2019-05-06T09:02:39.254Z,46.82
2019-05-06T09:05:14.314Z,46.65
2019-05-06T09:07:47.349Z,46.39
2019-05-06T09:10:19.094Z,46.21
2019-05-06T09:12:52.529Z,45.99
2019-05-06T09:15:24.954Z,45.87
2019-05-06T09:17:56.956Z,45.74
2019-05-06T09:20:29.068Z,45.35
2019-05-06T09:23:04.506Z,45.20
2019-05-06T09:25:34.656Z,45.07
2019-05-06T09:28:23.374Z,45.09
2019-05-06T09:31:05.502Z,44.91
2019-05-06T09:33:43.571Z,44.91
2019-05-06T09:36:15.343Z,44.93
2019-05-06T09:38:47.248Z,44.94
2019-05-06T09:41:19.275Z,45.06
2019-05-06T09:43:52.878Z,44.56
2019-05-06T09:46:25.336Z,44.54
2019-05-06T09:49:12.636Z,44.41
2019-05-06T09:51:44.097Z,43.96
2019-05-06T09:54:23.550Z,43.87
2019-05-06T09:57:08.608Z,43.67
2019-05-06T09:59:42.203Z,43.80
2019-05-06T10:02:14.157Z,43.76
2019-05-06T10:04:46.561Z,43.69
2019-05-06T10:07:18.309Z,43.39
2019-05-06T10:09:52.370Z,43.44
2019-05-06T10:12:23.816Z,43.60
2019-05-06T10:14:55.478Z,43.41
2019-05-06T10:17:27.164Z,43.25
2019-05-06T10:19:59.645Z,43.23
2019-05-06T10:22:32.495Z,42.94
2019-05-06T10:25:11.904Z,42.98
2019-05-06T10:28:02.729Z,42.91
2019-05-06T10:30:34.817Z,43.03
2019-05-06T10:33:10.317Z,42.87
2019-05-06T10:35:42.857Z,42.82
2019-05-06T10:38:42.377Z,42.53
2019-05-06T10:41:22.200Z,42.46
2019-05-06T10:44:17.500Z,42.47
2019-05-06T10:46:49.232Z,42.30
2019-05-06T10:49:22.684Z,42.11
2019-05-06T10:52:02.076Z,42.24
2019-05-06T10:54:33.250Z,41.98
2019-05-06T10:57:23.475Z,41.88
2019-05-06T10:59:55.336Z,41.93
2019-05-06T11:02:52.405Z,41.93
2019-05-06T11:05:24.225Z,41.88
2019-05-06T11:07:56.084Z,41.93
2019-05-06T11:10:35.103Z,41.88
2019-05-06T11:13:03.432Z,41.28
2019-05-06T11:15:35.200Z,41.11
2019-05-06T11:18:07.273Z,41.16
2019-05-06T11:20:39.062Z,40.82
2019-05-06T11:23:10.968Z,40.49
2019-05-06T11:25:43.329Z,40.20
2019-05-06T11:28:38.068Z,40.12
2019-05-06T11:31:23.031Z,39.74
2019-05-06T11:34:13.121Z,39.29
2019-05-06T11:36:52.428Z,39.03
2019-05-06T11:39:24.421Z,39.34
2019-05-06T11:42:15.381Z,38.98
2019-05-06T11:44:32.346Z,39.09
2019-05-06T11:47:04.380Z,39.08
2019-05-06T11:49:36.170Z,38.73
2019-05-06T11:52:07.850Z,38.71
2019-05-06T11:54:42.125Z,38.44
2019-05-06T11:57:13.456Z,38.81
2019-05-06T11:59:45.530Z,38.57
2019-05-06T12:02:20.767Z,38.82
2019-05-06T12:04:52.952Z,38.98
2019-05-06T12:07:25.227Z,38.80
2019-05-06T12:09:56.940Z,38.79
2019-05-06T12:12:28.663Z,38.55
2019-05-06T12:15:03.485Z,38.76
2019-05-06T12:17:35.955Z,38.78
2019-05-06T12:20:08.478Z,38.61
2019-05-06T12:22:42.408Z,38.09
2019-05-06T12:25:15.493Z,38.10
2019-05-06T12:27:47.581Z,38.04
2019-05-06T12:30:24.447Z,38.03
2019-05-06T12:33:23.906Z,37.93
2019-05-06T12:35:55.677Z,38.02
2019-05-06T12:38:30.931Z,37.96
2019-05-06T12:41:03.355Z,37.94
2019-05-06T12:43:54.160Z,37.90
2019-05-06T12:46:33.231Z,37.53
2019-05-06T12:49:05.153Z,37.36
2019-05-06T12:51:37.164Z,37.14
2019-05-06T12:54:08.859Z,37.45
2019-05-06T12:56:42.499Z,37.72
2019-05-06T12:59:14.577Z,37.72
2019-05-06T13:01:46.946Z,37.28
2019-05-06T13:04:18.901Z,37.47
2019-05-06T13:06:52.196Z,37.48
2019-05-06T13:09:24.334Z,37.41
2019-05-06T13:11:56.322Z,37.34
2019-05-06T13:14:28.131Z,37.32
2019-05-06T13:17:02.570Z,37.34
2019-05-06T13:19:34.136Z,37.31
2019-05-06T13:22:06.755Z,37.45
2019-05-06T13:24:38.449Z,37.35
2019-05-06T13:27:12.604Z,37.27
2019-05-06T13:29:44.415Z,37.31
2019-05-06T13:32:18.458Z,37.62
2019-05-06T13:34:52.544Z,37.73
2019-05-06T13:37:24.257Z,37.74
2019-05-06T13:39:56.056Z,37.77
2019-05-06T13:42:29.590Z,37.66
2019-05-06T13:45:02.899Z,37.63
2019-05-06T13:47:52.933Z,37.75
2019-05-06T13:50:28.305Z,37.52
2019-05-06T13:53:11.175Z,37.34
2019-05-06T13:55:39.089Z,36.96
2019-05-06T13:58:12.509Z,36.86
2019-05-06T14:00:44.482Z,36.89
2019-05-06T14:03:17.614Z,36.71
2019-05-06T14:05:49.356Z,36.83
2019-05-06T14:08:22.184Z,36.93
2019-05-06T14:10:59.618Z,36.71
2019-05-06T14:13:28.034Z,36.70
2019-05-06T14:15:59.905Z,36.72
2019-05-06T14:18:33.277Z,36.80
2019-05-06T14:21:05.664Z,36.73
2019-05-06T14:23:37.573Z,36.52
2019-05-06T14:26:17.464Z,36.49
2019-05-06T14:28:53.707Z,36.34
2019-05-06T14:31:28.146Z,36.46
2019-05-06T14:34:01.701Z,36.35
2019-05-06T14:36:33.566Z,36.05
2019-05-06T14:39:08.032Z,36.05
2019-05-06T14:41:44.506Z,35.73
2019-05-06T14:44:15.652Z,35.87
2019-05-06T14:47:15.389Z,35.82
2019-05-06T14:49:47.756Z,35.69
2019-05-06T14:52:19.521Z,35.83
2019-05-06T14:55:15.271Z,35.88
2019-05-06T14:57:46.644Z,36.00
2019-05-06T15:00:22.874Z,36.03
2019-05-06T15:02:53.850Z,36.05
2019-05-06T15:05:26.335Z,36.13
2019-05-06T15:07:58.139Z,36.38
2019-05-06T15:10:32.133Z,36.43
2019-05-06T15:13:03.605Z,36.46
2019-05-06T15:15:35.455Z,36.36
2019-05-06T15:18:07.227Z,36.48
2019-05-06T15:20:39.848Z,36.55
2019-05-06T15:23:13.062Z,36.51
2019-05-06T15:25:45.022Z,36.48
2019-05-06T15:28:16.960Z,36.51
2019-05-06T15:30:56.951Z,36.51
2019-05-06T15:33:33.353Z,36.54
2019-05-06T15:36:15.769Z,36.51
2019-05-06T15:38:48.048Z,36.63
2019-05-06T15:41:19.865Z,36.58
2019-05-06T15:43:51.624Z,36.48
2019-05-06T15:46:27.260Z,36.49
2019-05-06T15:48:59.116Z,36.33
2019-05-06T15:51:38.049Z,36.25
2019-05-06T15:54:09.923Z,36.21
2019-05-06T15:56:42.378Z,36.10
2019-05-06T15:59:15.084Z,35.99
2019-05-06T16:01:46.817Z,35.93
2019-05-06T16:04:18.501Z,35.77
2019-05-06T16:06:52.899Z,35.78
2019-05-06T16:09:25.444Z,35.77
2019-05-06T16:11:57.307Z,35.87
2019-05-06T16:14:29.056Z,35.91
2019-05-06T16:17:01.085Z,35.99
2019-05-06T16:19:33.728Z,35.91
2019-05-06T16:22:06.466Z,35.68
2019-05-06T16:24:44.185Z,35.58
2019-05-06T16:27:16.223Z,35.48
2019-05-06T16:29:47.990Z,35.60
2019-05-06T16:32:21.846Z,35.65
2019-05-06T16:34:53.260Z,35.62
2019-05-06T16:37:25.975Z,35.52
2019-05-06T16:39:58.333Z,35.54
2019-05-06T16:42:30.312Z,35.42
2019-05-06T16:45:06.871Z,35.33
2019-05-06T16:47:39.169Z,35.40
2019-05-06T16:50:14.560Z,35.52
2019-05-06T16:52:46.993Z,35.65
2019-05-06T16:55:24.951Z,35.74
2019-05-06T16:58:08.862Z,35.76
2019-05-06T17:00:42.840Z,35.86
2019-05-06T17:03:28.307Z,35.89
2019-05-06T17:06:17.089Z,35.91
2019-05-06T17:08:49.570Z,36.02
2019-05-06T17:11:28.030Z,36.04
2019-05-06T17:13:54.872Z,36.00
2019-05-06T17:16:26.645Z,36.01
2019-05-06T17:18:59.126Z,36.07
2019-05-06T17:21:33.247Z,36.08
2019-05-06T17:24:05.034Z,36.10
2019-05-06T17:26:37.049Z,36.17
2019-05-06T17:29:26.711Z,36.18
2019-05-06T17:32:14.366Z,36.24
2019-05-06T17:34:49.389Z,36.25
2019-05-06T17:37:39.540Z,36.26
2019-05-06T17:40:15.941Z,36.21
2019-05-06T17:42:47.747Z,36.26
2019-05-06T17:45:38.751Z,36.32
2019-05-06T17:48:23.110Z,36.34
2019-05-06T17:51:13.612Z,36.42
2019-05-06T17:53:48.267Z,36.47
2019-05-06T17:56:22.295Z,36.54
2019-05-06T17:58:54.634Z,36.59
2019-05-06T18:01:45.314Z,36.66
2019-05-06T18:04:17.097Z,36.75
2019-05-06T18:06:49.239Z,36.84
2019-05-06T18:09:22.298Z,36.91
2019-05-06T18:11:58.960Z,36.98
2019-05-06T18:14:28.278Z,37.04
2019-05-06T18:17:00.139Z,37.07
2019-05-06T18:19:33.525Z,37.06
2019-05-06T18:22:29.762Z,37.03
2019-05-06T18:25:05.756Z,36.99
2019-05-06T18:27:37.772Z,36.94
2019-05-06T18:30:22.315Z,36.91
2019-05-06T18:32:45.529Z,36.92
2019-05-06T18:35:17.405Z,36.93
2019-05-06T18:37:49.214Z,36.96
2019-05-06T18:40:23.224Z,37.03
2019-05-06T18:42:54.801Z,37.12
2019-05-06T18:45:27.354Z,37.15
2019-05-06T18:47:59.197Z,37.19
2019-05-06T18:50:31.157Z,37.21
2019-05-06T18:53:03.150Z,37.25
2019-05-06T18:55:36.770Z,37.24
2019-05-06T18:58:08.852Z,37.26
2019-05-06T19:00:40.684Z,37.28
2019-05-06T19:03:12.976Z,37.30
2019-05-06T19:06:18.479Z,37.35
2019-05-06T19:09:29.740Z,37.47
2019-05-06T19:12:03.550Z,37.60
2019-05-06T19:14:35.737Z,37.82
2019-05-06T19:17:08.175Z,38.00
2019-05-06T19:19:42.443Z,38.13
2019-05-06T19:22:14.199Z,38.22
2019-05-06T19:24:46.100Z,38.25
2019-05-06T19:27:17.965Z,38.24
2019-05-06T19:29:49.924Z,38.21
2019-05-06T19:32:42.492Z,38.22
2019-05-06T19:35:42.799Z,38.22
2019-05-06T19:39:04.735Z,38.31
2019-05-06T19:41:35.591Z,38.39
2019-05-06T19:44:07.557Z,38.44
2019-05-06T19:47:20.986Z,38.47
2019-05-06T19:50:42.916Z,38.46
2019-05-06T19:53:43.089Z,38.37
2019-05-06T19:56:15.120Z,38.30
2019-05-06T19:58:47.409Z,38.27
2019-05-06T20:01:19.335Z,38.33
2019-05-06T20:03:58.719Z,38.39
2019-05-06T20:06:58.159Z,38.52
2019-05-06T20:10:14.721Z,38.66
2019-05-06T20:13:08.753Z,38.75
2019-05-06T20:15:42.709Z,38.76
2019-05-06T20:18:15.321Z,38.83
2019-05-06T20:20:48.870Z,38.83
2019-05-06T20:23:23.069Z,38.82
2019-05-06T20:26:25.091Z,38.97
2019-05-06T20:29:04.868Z,39.18
2019-05-06T20:32:18.930Z,39.44
2019-05-06T20:34:51.931Z,39.66
2019-05-06T20:37:23.695Z,39.88
2019-05-06T20:39:55.503Z,40.12
2019-05-06T20:43:14.041Z,40.30
2019-05-06T20:45:35.976Z,40.49
2019-05-06T20:48:07.969Z,40.61
2019-05-06T20:50:40.206Z,40.92
2019-05-06T20:53:12.319Z,41.15
2019-05-06T20:55:44.290Z,41.41
2019-05-06T20:58:16.231Z,41.63
2019-05-06T21:01:12.737Z,41.77
2019-05-06T21:04:40.062Z,41.84
2019-05-06T21:07:13.882Z,41.88
2019-05-06T21:09:45.659Z,41.86
2019-05-06T21:12:17.529Z,42.02
2019-05-06T21:14:49.465Z,42.20
2019-05-06T21:17:22.865Z,42.27
2019-05-06T21:19:54.784Z,42.37
2019-05-06T21:22:26.945Z,42.47
2019-05-06T21:24:59.047Z,42.51
2019-05-06T21:28:35.737Z,42.58
2019-05-06T21:31:08.339Z,42.67
2019-05-06T21:33:54.705Z,42.65
2019-05-06T21:36:35.905Z,42.80
2019-05-06T21:39:24.150Z,43.00
2019-05-06T21:41:54.797Z,43.00
2019-05-06T21:44:26.557Z,43.18
2019-05-06T21:46:58.261Z,43.27
2019-05-06T21:49:29.998Z,43.30
2019-05-06T21:52:02.319Z,43.40
2019-05-06T21:56:02.983Z,43.45
2019-05-06T21:59:25.265Z,43.57
2019-05-06T22:02:00.069Z,43.52
2019-05-06T22:04:33.640Z,43.45
2019-05-06T22:07:05.536Z,43.54
2019-05-06T22:09:37.379Z,43.56
2019-05-06T22:12:09.278Z,43.57
2019-05-06T22:14:42.266Z,43.57
2019-05-06T22:17:58.503Z,43.60
2019-05-06T22:20:34.682Z,43.64
2019-05-06T22:23:06.931Z,43.68
2019-05-06T22:25:38.791Z,43.91
2019-05-06T22:28:11.983Z,44.05
2019-05-06T22:30:43.788Z,44.16
2019-05-06T22:33:15.886Z,44.25
2019-05-06T22:35:54.900Z,44.29
2019-05-06T22:38:26.899Z,44.32
2019-05-06T22:41:02.318Z,44.37
2019-05-06T22:43:38.033Z,44.43
2019-05-06T22:46:09.678Z,44.49
2019-05-06T22:49:53.874Z,44.53
2019-05-06T22:52:02.768Z,44.69
2019-05-06T22:54:34.689Z,44.70
2019-05-06T22:57:06.429Z,44.70
2019-05-06T23:00:42.494Z,44.84
2019-05-06T23:03:04.171Z,45.02
2019-05-06T23:05:36.388Z,45.05
2019-05-06T23:08:08.076Z,45.10
2019-05-06T23:10:42.125Z,45.15
2019-05-06T23:13:13.246Z,45.11
2019-05-06T23:15:45.009Z,45.12
2019-05-06T23:18:16.753Z,45.09
2019-05-06T23:21:35.028Z,45.15
2019-05-06T23:24:41.155Z,45.26
2019-05-06T23:27:48.868Z,45.30
2019-05-06T23:30:45.465Z,45.50
2019-05-06T23:33:17.357Z,45.72
2019-05-06T23:35:51.501Z,45.85
2019-05-06T23:39:17.610Z,46.01
2019-05-06T23:45:25.747Z,46.55
2019-05-06T23:48:52.309Z,46.40
2019-05-06T23:52:17.754Z,46.31
